sensor_id;sensor_type;location;lat;lon;timestamp;pressure;altitude;pressure_sealevel;temperature;humidity
50368;BME280;36281;34.132;-118.018;2023-04-05T00:01:45;100248.31;;;19.34;25.60
50368;BME280;36281;34.132;-118.018;2023-04-05T00:04:17;100247.94;;;19.15;25.15
50368;BME280;36281;34.132;-118.018;2023-04-05T00:06:51;100247.53;;;18.96;25.98
50368;BME280;36281;34.132;-118.018;2023-04-05T00:09:21;100241.84;;;18.88;26.12
50368;BME280;36281;34.132;-118.018;2023-04-05T00:11:50;100257.63;;;18.84;25.97
50368;BME280;36281;34.132;-118.018;2023-04-05T00:14:19;100257.81;;;18.72;26.89
50368;BME280;36281;34.132;-118.018;2023-04-05T00:16:50;100260.81;;;18.76;27.53
50368;BME280;36281;34.132;-118.018;2023-04-05T00:19:19;100256.47;;;18.70;27.45
50368;BME280;36281;34.132;-118.018;2023-04-05T00:21:50;100260.22;;;18.74;27.49
50368;BME280;36281;34.132;-118.018;2023-04-05T00:24:21;100260.75;;;18.71;27.76
50368;BME280;36281;34.132;-118.018;2023-04-05T00:26:51;100259.06;;;18.65;27.81
50368;BME280;36281;34.132;-118.018;2023-04-05T00:29:20;100262.00;;;18.63;28.21
50368;BME280;36281;34.132;-118.018;2023-04-05T00:31:51;100265.91;;;18.50;28.23
50368;BME280;36281;34.132;-118.018;2023-04-05T00:34:20;100265.00;;;18.40;28.95
50368;BME280;36281;34.132;-118.018;2023-04-05T00:36:49;100259.03;;;18.32;29.11
50368;BME280;36281;34.132;-118.018;2023-04-05T00:39:18;100260.06;;;18.26;28.93
50368;BME280;36281;34.132;-118.018;2023-04-05T00:41:47;100273.63;;;18.20;29.36
50368;BME280;36281;34.132;-118.018;2023-04-05T00:44:16;100273.59;;;18.15;29.41
50368;BME280;36281;34.132;-118.018;2023-04-05T00:46:45;100266.22;;;18.05;29.62
50368;BME280;36281;34.132;-118.018;2023-04-05T00:49:17;100273.88;;;17.91;29.67
50368;BME280;36281;34.132;-118.018;2023-04-05T00:51:46;100273.22;;;17.84;29.91
50368;BME280;36281;34.132;-118.018;2023-04-05T00:54:16;100274.88;;;17.68;30.13
50368;BME280;36281;34.132;-118.018;2023-04-05T00:56:46;100270.53;;;17.62;30.69
50368;BME280;36281;34.132;-118.018;2023-04-05T00:59:15;100269.19;;;17.65;30.59
50368;BME280;36281;34.132;-118.018;2023-04-05T01:01:44;100275.56;;;17.58;30.85
50368;BME280;36281;34.132;-118.018;2023-04-05T01:04:25;100272.81;;;17.53;30.87
50368;BME280;36281;34.132;-118.018;2023-04-05T01:07:06;100278.97;;;17.54;31.08
50368;BME280;36281;34.132;-118.018;2023-04-05T01:09:47;100274.00;;;17.41;31.04
50368;BME280;36281;34.132;-118.018;2023-04-05T01:12:22;100279.22;;;17.30;31.09
50368;BME280;36281;34.132;-118.018;2023-04-05T01:14:54;100273.13;;;17.18;31.35
50368;BME280;36281;34.132;-118.018;2023-04-05T01:17:25;100277.13;;;17.16;31.65
50368;BME280;36281;34.132;-118.018;2023-04-05T01:19:58;100288.47;;;17.06;31.58
50368;BME280;36281;34.132;-118.018;2023-04-05T01:32:01;100287.66;;;16.72;31.67
50368;BME280;36281;34.132;-118.018;2023-04-05T01:34:44;100296.84;;;16.64;31.95
50368;BME280;36281;34.132;-118.018;2023-04-05T01:37:19;100282.56;;;16.59;32.14
50368;BME280;36281;34.132;-118.018;2023-04-05T01:39:50;100288.88;;;16.52;32.45
50368;BME280;36281;34.132;-118.018;2023-04-05T01:42:22;100279.69;;;16.32;32.71
50368;BME280;36281;34.132;-118.018;2023-04-05T01:44:56;100281.31;;;16.33;32.83
50368;BME280;36281;34.132;-118.018;2023-04-05T01:47:27;100279.09;;;16.29;32.88
50368;BME280;36281;34.132;-118.018;2023-04-05T01:49:56;100277.47;;;16.28;33.32
50368;BME280;36281;34.132;-118.018;2023-04-05T01:52:25;100291.91;;;16.27;33.10
50368;BME280;36281;34.132;-118.018;2023-04-05T01:54:54;100291.31;;;16.25;33.41
50368;BME280;36281;34.132;-118.018;2023-04-05T01:57:23;100296.81;;;16.19;33.21
50368;BME280;36281;34.132;-118.018;2023-04-05T01:59:52;100304.97;;;16.12;32.92
50368;BME280;36281;34.132;-118.018;2023-04-05T02:02:21;100303.34;;;16.11;33.31
50368;BME280;36281;34.132;-118.018;2023-04-05T02:04:52;100307.53;;;16.07;33.60
50368;BME280;36281;34.132;-118.018;2023-04-05T02:07:21;100311.13;;;16.01;33.39
50368;BME280;36281;34.132;-118.018;2023-04-05T02:09:51;100311.16;;;15.89;33.65
50368;BME280;36281;34.132;-118.018;2023-04-05T02:12:20;100266.97;;;15.58;33.64
50368;BME280;36281;34.132;-118.018;2023-04-05T02:14:50;100312.47;;;15.87;33.66
50368;BME280;36281;34.132;-118.018;2023-04-05T02:17:20;100314.19;;;15.81;33.32
50368;BME280;36281;34.132;-118.018;2023-04-05T02:19:54;100316.75;;;15.76;33.21
50368;BME280;36281;34.132;-118.018;2023-04-05T02:22:29;100326.31;;;15.72;33.10
50368;BME280;36281;34.132;-118.018;2023-04-05T02:24:58;100325.97;;;15.68;33.15
50368;BME280;36281;34.132;-118.018;2023-04-05T02:27:28;100328.28;;;15.65;33.06
50368;BME280;36281;34.132;-118.018;2023-04-05T02:29:57;100333.47;;;15.60;33.32
50368;BME280;36281;34.132;-118.018;2023-04-05T02:32:27;100330.22;;;15.58;33.26
50368;BME280;36281;34.132;-118.018;2023-04-05T02:34:57;100328.63;;;15.57;33.56
50368;BME280;36281;34.132;-118.018;2023-04-05T02:37:26;100323.72;;;15.54;33.49
50368;BME280;36281;34.132;-118.018;2023-04-05T02:39:55;100336.50;;;15.51;33.50
50368;BME280;36281;34.132;-118.018;2023-04-05T02:42:24;100333.25;;;15.49;33.86
50368;BME280;36281;34.132;-118.018;2023-04-05T02:44:53;100344.41;;;15.46;33.85
50368;BME280;36281;34.132;-118.018;2023-04-05T02:47:23;100336.72;;;15.38;34.11
50368;BME280;36281;34.132;-118.018;2023-04-05T02:49:52;100344.13;;;15.36;34.14
50368;BME280;36281;34.132;-118.018;2023-04-05T02:52:23;100346.13;;;15.29;34.59
50368;BME280;36281;34.132;-118.018;2023-04-05T02:54:52;100354.00;;;15.24;34.82
50368;BME280;36281;34.132;-118.018;2023-04-05T02:57:21;100362.94;;;15.18;35.05
50368;BME280;36281;34.132;-118.018;2023-04-05T02:59:50;100362.22;;;15.11;35.31
50368;BME280;36281;34.132;-118.018;2023-04-05T03:02:19;100371.25;;;15.10;35.46
50368;BME280;36281;34.132;-118.018;2023-04-05T03:04:51;100364.53;;;15.07;35.83
50368;BME280;36281;34.132;-118.018;2023-04-05T03:07:25;100370.56;;;15.03;35.58
50368;BME280;36281;34.132;-118.018;2023-04-05T03:09:55;100365.66;;;14.99;35.58
50368;BME280;36281;34.132;-118.018;2023-04-05T03:12:25;100366.47;;;15.00;36.15
50368;BME280;36281;34.132;-118.018;2023-04-05T03:14:54;100373.09;;;14.97;36.45
50368;BME280;36281;34.132;-118.018;2023-04-05T03:17:23;100362.44;;;14.97;36.42
50368;BME280;36281;34.132;-118.018;2023-04-05T03:19:53;100359.63;;;14.92;36.32
50368;BME280;36281;34.132;-118.018;2023-04-05T03:22:22;100377.25;;;14.93;36.18
50368;BME280;36281;34.132;-118.018;2023-04-05T03:24:52;100377.94;;;14.89;36.13
50368;BME280;36281;34.132;-118.018;2023-04-05T03:27:22;100388.84;;;14.87;36.41
50368;BME280;36281;34.132;-118.018;2023-04-05T03:29:51;100385.56;;;14.85;36.56
50368;BME280;36281;34.132;-118.018;2023-04-05T03:32:20;100387.66;;;14.83;36.85
50368;BME280;36281;34.132;-118.018;2023-04-05T03:34:49;100391.81;;;14.79;36.79
50368;BME280;36281;34.132;-118.018;2023-04-05T03:37:18;100362.19;;;14.57;37.17
50368;BME280;36281;34.132;-118.018;2023-04-05T03:39:47;100400.59;;;14.68;37.62
50368;BME280;36281;34.132;-118.018;2023-04-05T03:42:18;100399.97;;;14.66;38.15
50368;BME280;36281;34.132;-118.018;2023-04-05T03:44:51;100403.31;;;14.61;38.17
50368;BME280;36281;34.132;-118.018;2023-04-05T03:47:20;100402.97;;;14.58;38.18
50368;BME280;36281;34.132;-118.018;2023-04-05T03:49:49;100395.19;;;14.56;38.59
50368;BME280;36281;34.132;-118.018;2023-04-05T03:52:18;100400.75;;;14.55;38.85
50368;BME280;36281;34.132;-118.018;2023-04-05T03:54:47;100394.47;;;14.49;38.34
50368;BME280;36281;34.132;-118.018;2023-04-05T03:57:18;100378.59;;;14.36;36.96
50368;BME280;36281;34.132;-118.018;2023-04-05T03:59:48;100402.53;;;14.42;37.10
50368;BME280;36281;34.132;-118.018;2023-04-05T04:02:17;100395.41;;;14.36;37.41
50368;BME280;36281;34.132;-118.018;2023-04-05T04:04:46;100408.72;;;14.36;37.88
50368;BME280;36281;34.132;-118.018;2023-04-05T04:07:15;100413.91;;;14.31;39.04
50368;BME280;36281;34.132;-118.018;2023-04-05T04:09:44;100412.75;;;14.27;38.32
50368;BME280;36281;34.132;-118.018;2023-04-05T04:12:13;100423.22;;;14.22;38.56
50368;BME280;36281;34.132;-118.018;2023-04-05T04:14:44;100430.63;;;14.20;39.39
50368;BME280;36281;34.132;-118.018;2023-04-05T04:17:25;100430.91;;;14.12;40.10
50368;BME280;36281;34.132;-118.018;2023-04-05T04:19:56;100410.19;;;13.95;39.29
50368;BME280;36281;34.132;-118.018;2023-04-05T04:22:25;100433.75;;;13.99;39.93
50368;BME280;36281;34.132;-118.018;2023-04-05T04:25:00;100441.19;;;13.90;40.26
50368;BME280;36281;34.132;-118.018;2023-04-05T04:27:34;100437.47;;;13.91;41.62
50368;BME280;36281;34.132;-118.018;2023-04-05T04:30:06;100444.88;;;13.89;41.87
50368;BME280;36281;34.132;-118.018;2023-04-05T04:32:38;100445.38;;;13.79;42.07
50368;BME280;36281;34.132;-118.018;2023-04-05T04:35:24;100436.84;;;13.70;41.61
50368;BME280;36281;34.132;-118.018;2023-04-05T04:37:56;100439.13;;;13.67;42.38
50368;BME280;36281;34.132;-118.018;2023-04-05T04:40:28;100422.91;;;13.50;43.29
50368;BME280;36281;34.132;-118.018;2023-04-05T04:42:59;100444.75;;;13.59;42.88
50368;BME280;36281;34.132;-118.018;2023-04-05T04:45:30;100443.97;;;13.52;42.64
50368;BME280;36281;34.132;-118.018;2023-04-05T04:48:05;100443.78;;;13.47;43.83
50368;BME280;36281;34.132;-118.018;2023-04-05T04:50:35;100442.59;;;13.42;44.21
50368;BME280;36281;34.132;-118.018;2023-04-05T04:53:05;100444.25;;;13.43;43.63
50368;BME280;36281;34.132;-118.018;2023-04-05T04:55:34;100452.00;;;13.45;43.08
50368;BME280;36281;34.132;-118.018;2023-04-05T04:58:03;100451.78;;;13.47;43.64
50368;BME280;36281;34.132;-118.018;2023-04-05T05:00:40;100445.66;;;13.46;43.81
50368;BME280;36281;34.132;-118.018;2023-04-05T05:03:12;100449.41;;;13.38;43.85
50368;BME280;36281;34.132;-118.018;2023-04-05T05:05:45;100443.47;;;13.36;43.79
50368;BME280;36281;34.132;-118.018;2023-04-05T05:08:14;100447.75;;;13.37;45.11
50368;BME280;36281;34.132;-118.018;2023-04-05T05:10:50;100444.50;;;13.35;45.40
50368;BME280;36281;34.132;-118.018;2023-04-05T05:13:20;100450.69;;;13.29;46.32
50368;BME280;36281;34.132;-118.018;2023-04-05T05:15:51;100443.13;;;13.26;46.27
50368;BME280;36281;34.132;-118.018;2023-04-05T05:18:20;100442.53;;;13.24;46.63
50368;BME280;36281;34.132;-118.018;2023-04-05T05:20:50;100443.38;;;13.18;46.70
50368;BME280;36281;34.132;-118.018;2023-04-05T05:23:20;100442.34;;;13.12;46.23
50368;BME280;36281;34.132;-118.018;2023-04-05T05:25:50;100449.53;;;13.12;46.86
50368;BME280;36281;34.132;-118.018;2023-04-05T05:28:19;100442.19;;;13.07;46.77
50368;BME280;36281;34.132;-118.018;2023-04-05T05:30:54;100449.56;;;13.05;46.23
50368;BME280;36281;34.132;-118.018;2023-04-05T05:33:24;100436.50;;;12.97;46.57
50368;BME280;36281;34.132;-118.018;2023-04-05T05:35:53;100452.66;;;13.02;46.56
50368;BME280;36281;34.132;-118.018;2023-04-05T05:38:22;100452.88;;;13.01;46.84
50368;BME280;36281;34.132;-118.018;2023-04-05T05:40:55;100461.06;;;12.99;47.19
50368;BME280;36281;34.132;-118.018;2023-04-05T05:43:24;100467.59;;;12.97;46.67
50368;BME280;36281;34.132;-118.018;2023-04-05T05:45:55;100461.31;;;12.91;46.99
50368;BME280;36281;34.132;-118.018;2023-04-05T05:48:28;100474.81;;;12.89;47.50
50368;BME280;36281;34.132;-118.018;2023-04-05T05:50:57;100470.94;;;12.85;47.75
50368;BME280;36281;34.132;-118.018;2023-04-05T05:53:30;100481.78;;;12.84;47.08
50368;BME280;36281;34.132;-118.018;2023-04-05T05:55:59;100474.00;;;12.82;46.78
50368;BME280;36281;34.132;-118.018;2023-04-05T05:58:28;100469.94;;;12.80;47.19
50368;BME280;36281;34.132;-118.018;2023-04-05T06:00:59;100480.38;;;12.81;47.33
50368;BME280;36281;34.132;-118.018;2023-04-05T06:03:28;100479.78;;;12.79;47.55
50368;BME280;36281;34.132;-118.018;2023-04-05T06:05:58;100484.69;;;12.76;47.59
50368;BME280;36281;34.132;-118.018;2023-04-05T06:08:27;100474.28;;;12.67;47.42
50368;BME280;36281;34.132;-118.018;2023-04-05T06:10:56;100455.53;;;12.56;47.93
50368;BME280;36281;34.132;-118.018;2023-04-05T06:13:26;100487.75;;;12.73;48.70
50368;BME280;36281;34.132;-118.018;2023-04-05T06:15:55;100490.84;;;12.70;48.67
50368;BME280;36281;34.132;-118.018;2023-04-05T06:18:26;100486.75;;;12.67;48.85
50368;BME280;36281;34.132;-118.018;2023-04-05T06:20:55;100493.09;;;12.66;48.41
50368;BME280;36281;34.132;-118.018;2023-04-05T06:23:24;100490.66;;;12.64;47.95
50368;BME280;36281;34.132;-118.018;2023-04-05T06:25:53;100491.28;;;12.60;48.31
50368;BME280;36281;34.132;-118.018;2023-04-05T06:28:24;100487.00;;;12.59;49.06
50368;BME280;36281;34.132;-118.018;2023-04-05T06:30:54;100488.44;;;12.55;48.38
50368;BME280;36281;34.132;-118.018;2023-04-05T06:33:25;100491.72;;;12.50;48.48
50368;BME280;36281;34.132;-118.018;2023-04-05T06:35:54;100495.22;;;12.44;49.10
50368;BME280;36281;34.132;-118.018;2023-04-05T06:38:23;100500.72;;;12.42;48.87
50368;BME280;36281;34.132;-118.018;2023-04-05T06:40:52;100500.13;;;12.40;49.42
50368;BME280;36281;34.132;-118.018;2023-04-05T06:43:21;100489.31;;;12.35;49.76
50368;BME280;36281;34.132;-118.018;2023-04-05T06:45:50;100490.16;;;12.29;49.40
50368;BME280;36281;34.132;-118.018;2023-04-05T06:48:19;100490.75;;;12.25;50.02
50368;BME280;36281;34.132;-118.018;2023-04-05T06:50:58;100484.22;;;12.21;50.46
50368;BME280;36281;34.132;-118.018;2023-04-05T06:53:27;100491.19;;;12.15;50.77
50368;BME280;36281;34.132;-118.018;2023-04-05T06:55:56;100492.41;;;12.12;50.51
50368;BME280;36281;34.132;-118.018;2023-04-05T06:58:26;100484.84;;;12.03;50.71
50368;BME280;36281;34.132;-118.018;2023-04-05T07:00:55;100488.75;;;12.00;51.40
50368;BME280;36281;34.132;-118.018;2023-04-05T07:03:24;100485.09;;;11.95;51.60
50368;BME280;36281;34.132;-118.018;2023-04-05T07:05:55;100492.44;;;11.86;52.18
50368;BME280;36281;34.132;-118.018;2023-04-05T07:08:27;100484.44;;;11.79;52.56
50368;BME280;36281;34.132;-118.018;2023-04-05T07:10:56;100480.97;;;11.72;52.67
50368;BME280;36281;34.132;-118.018;2023-04-05T07:13:26;100453.41;;;11.53;53.25
50368;BME280;36281;34.132;-118.018;2023-04-05T07:15:59;100479.94;;;11.67;53.17
50368;BME280;36281;34.132;-118.018;2023-04-05T07:18:29;100476.66;;;11.58;53.46
50368;BME280;36281;34.132;-118.018;2023-04-05T07:20:58;100462.78;;;11.43;53.46
50368;BME280;36281;34.132;-118.018;2023-04-05T07:23:30;100485.03;;;11.55;53.88
50368;BME280;36281;34.132;-118.018;2023-04-05T07:26:02;100455.22;;;11.26;54.13
50368;BME280;36281;34.132;-118.018;2023-04-05T07:28:35;100487.88;;;11.47;54.36
50368;BME280;36281;34.132;-118.018;2023-04-05T07:31:05;100479.50;;;11.36;54.60
50368;BME280;36281;34.132;-118.018;2023-04-05T07:33:34;100479.09;;;11.33;55.00
50368;BME280;36281;34.132;-118.018;2023-04-05T07:36:04;100479.09;;;11.26;54.45
50368;BME280;36281;34.132;-118.018;2023-04-05T07:38:35;100477.44;;;11.25;54.22
50368;BME280;36281;34.132;-118.018;2023-04-05T07:41:04;100481.31;;;11.23;54.19
50368;BME280;36281;34.132;-118.018;2023-04-05T07:43:33;100488.44;;;11.22;54.34
50368;BME280;36281;34.132;-118.018;2023-04-05T07:46:02;100478.88;;;11.15;54.11
50368;BME280;36281;34.132;-118.018;2023-04-05T07:48:32;100479.25;;;11.11;54.33
50368;BME280;36281;34.132;-118.018;2023-04-05T07:51:05;100476.97;;;11.02;54.47
50368;BME280;36281;34.132;-118.018;2023-04-05T07:53:36;100486.16;;;10.99;54.55
50368;BME280;36281;34.132;-118.018;2023-04-05T07:56:06;100473.50;;;10.95;55.10
50368;BME280;36281;34.132;-118.018;2023-04-05T07:58:36;100464.88;;;10.79;54.78
50368;BME280;36281;34.132;-118.018;2023-04-05T08:01:10;100478.59;;;10.90;54.16
50368;BME280;36281;34.132;-118.018;2023-04-05T08:03:39;100462.41;;;10.71;54.62
50368;BME280;36281;34.132;-118.018;2023-04-05T08:06:12;100488.31;;;10.82;54.98
50368;BME280;36281;34.132;-118.018;2023-04-05T08:08:43;100477.50;;;10.77;55.32
50368;BME280;36281;34.132;-118.018;2023-04-05T08:11:12;100481.38;;;10.75;56.09
50368;BME280;36281;34.132;-118.018;2023-04-05T08:13:42;100476.25;;;10.67;55.81
50368;BME280;36281;34.132;-118.018;2023-04-05T08:16:11;100454.56;;;10.50;56.41
50368;BME280;36281;34.132;-118.018;2023-04-05T08:18:40;100488.22;;;10.63;56.57
50368;BME280;36281;34.132;-118.018;2023-04-05T08:21:09;100488.66;;;10.59;56.36
50368;BME280;36281;34.132;-118.018;2023-04-05T08:23:38;100487.97;;;10.51;56.32
50368;BME280;36281;34.132;-118.018;2023-04-05T08:26:09;100492.03;;;10.47;56.83
50368;BME280;36281;34.132;-118.018;2023-04-05T08:28:38;100485.47;;;10.43;56.73
50368;BME280;36281;34.132;-118.018;2023-04-05T08:31:07;100492.75;;;10.34;57.25
50368;BME280;36281;34.132;-118.018;2023-04-05T08:33:39;100500.09;;;10.32;57.86
50368;BME280;36281;34.132;-118.018;2023-04-05T08:36:09;100493.13;;;10.24;58.69
50368;BME280;36281;34.132;-118.018;2023-04-05T08:38:39;100499.56;;;10.15;58.88
50368;BME280;36281;34.132;-118.018;2023-04-05T08:41:17;100490.16;;;10.13;58.79
50368;BME280;36281;34.132;-118.018;2023-04-05T08:43:55;100499.31;;;10.10;58.59
50368;BME280;36281;34.132;-118.018;2023-04-05T08:46:25;100494.97;;;10.02;58.78
50368;BME280;36281;34.132;-118.018;2023-04-05T08:48:56;100501.72;;;10.05;58.95
50368;BME280;36281;34.132;-118.018;2023-04-05T08:51:26;100493.13;;;10.03;58.61
50368;BME280;36281;34.132;-118.018;2023-04-05T08:53:55;100493.72;;;9.98;59.02
50368;BME280;36281;34.132;-118.018;2023-04-05T08:56:31;100491.28;;;9.97;58.78
50368;BME280;36281;34.132;-118.018;2023-04-05T08:59:03;100480.19;;;9.87;58.98
50368;BME280;36281;34.132;-118.018;2023-04-05T09:01:35;100485.06;;;9.83;59.16
50368;BME280;36281;34.132;-118.018;2023-04-05T09:04:06;100479.72;;;9.76;59.89
50368;BME280;36281;34.132;-118.018;2023-04-05T09:06:35;100487.41;;;9.71;60.53
50368;BME280;36281;34.132;-118.018;2023-04-05T09:09:06;100476.59;;;9.66;60.84
50368;BME280;36281;34.132;-118.018;2023-04-05T09:11:37;100477.59;;;9.65;60.93
50368;BME280;36281;34.132;-118.018;2023-04-05T09:14:07;100478.97;;;9.61;60.56
50368;BME280;36281;34.132;-118.018;2023-04-05T09:16:37;100481.44;;;9.63;60.53
50368;BME280;36281;34.132;-118.018;2023-04-05T09:19:07;100459.72;;;9.46;60.92
50368;BME280;36281;34.132;-118.018;2023-04-05T09:21:58;100473.19;;;9.51;61.07
50368;BME280;36281;34.132;-118.018;2023-04-05T09:24:33;100454.81;;;9.43;61.37
50368;BME280;36281;34.132;-118.018;2023-04-05T09:27:08;100468.47;;;9.46;61.83
50368;BME280;36281;34.132;-118.018;2023-04-05T09:29:38;100471.03;;;9.40;61.76
50368;BME280;36281;34.132;-118.018;2023-04-05T09:32:08;100473.25;;;9.36;62.46
50368;BME280;36281;34.132;-118.018;2023-04-05T09:34:38;100461.88;;;9.36;62.36
50368;BME280;36281;34.132;-118.018;2023-04-05T09:37:12;100465.91;;;9.31;62.05
50368;BME280;36281;34.132;-118.018;2023-04-05T09:39:42;100448.25;;;9.17;62.23
50368;BME280;36281;34.132;-118.018;2023-04-05T09:42:13;100450.66;;;9.12;62.20
50368;BME280;36281;34.132;-118.018;2023-04-05T09:44:50;100460.84;;;9.15;63.74
50368;BME280;36281;34.132;-118.018;2023-04-05T09:47:20;100452.84;;;9.09;63.51
50368;BME280;36281;34.132;-118.018;2023-04-05T09:49:50;100450.59;;;9.05;63.32
50368;BME280;36281;34.132;-118.018;2023-04-05T09:52:23;100455.69;;;9.07;62.94
50368;BME280;36281;34.132;-118.018;2023-04-05T09:54:53;100441.69;;;8.92;61.77
50368;BME280;36281;34.132;-118.018;2023-04-05T09:57:27;100458.81;;;8.96;62.17
50368;BME280;36281;34.132;-118.018;2023-04-05T09:59:58;100459.44;;;8.98;62.58
50368;BME280;36281;34.132;-118.018;2023-04-05T10:02:35;100456.28;;;8.88;62.78
50368;BME280;36281;34.132;-118.018;2023-04-05T10:05:06;100459.19;;;8.93;63.22
50368;BME280;36281;34.132;-118.018;2023-04-05T10:07:36;100458.91;;;8.88;62.90
50368;BME280;36281;34.132;-118.018;2023-04-05T10:10:06;100447.09;;;8.84;63.04
50368;BME280;36281;34.132;-118.018;2023-04-05T10:12:38;100447.22;;;8.75;63.23
50368;BME280;36281;34.132;-118.018;2023-04-05T10:15:10;100451.47;;;8.76;63.61
50368;BME280;36281;34.132;-118.018;2023-04-05T10:17:46;100448.19;;;8.74;63.15
50368;BME280;36281;34.132;-118.018;2023-04-05T10:20:20;100456.31;;;8.73;63.41
50368;BME280;36281;34.132;-118.018;2023-04-05T10:23:05;100445.69;;;8.66;63.15
50368;BME280;36281;34.132;-118.018;2023-04-05T10:25:50;100442.50;;;8.56;63.27
50368;BME280;36281;34.132;-118.018;2023-04-05T10:28:29;100448.31;;;8.66;63.70
50368;BME280;36281;34.132;-118.018;2023-04-05T10:31:09;100449.88;;;8.61;63.55
50368;BME280;36281;34.132;-118.018;2023-04-05T10:33:44;100438.59;;;8.52;63.71
50368;BME280;36281;34.132;-118.018;2023-04-05T10:36:20;100439.88;;;8.56;63.99
50368;BME280;36281;34.132;-118.018;2023-04-05T10:38:59;100439.59;;;8.51;63.82
50368;BME280;36281;34.132;-118.018;2023-04-05T10:41:30;100438.88;;;8.42;63.98
50368;BME280;36281;34.132;-118.018;2023-04-05T10:44:04;100434.75;;;8.40;64.39
50368;BME280;36281;34.132;-118.018;2023-04-05T10:46:54;100436.59;;;8.39;64.65
50368;BME280;36281;34.132;-118.018;2023-04-05T10:49:31;100444.91;;;8.36;64.86
50368;BME280;36281;34.132;-118.018;2023-04-05T10:52:04;100440.28;;;8.30;65.11
50368;BME280;36281;34.132;-118.018;2023-04-05T10:54:34;100447.13;;;8.24;65.04
50368;BME280;36281;34.132;-118.018;2023-04-05T10:57:08;100444.06;;;8.21;65.87
50368;BME280;36281;34.132;-118.018;2023-04-05T10:59:42;100437.38;;;8.10;65.62
50368;BME280;36281;34.132;-118.018;2023-04-05T11:02:13;100439.66;;;8.13;65.50
50368;BME280;36281;34.132;-118.018;2023-04-05T11:04:44;100441.03;;;8.09;65.67
50368;BME280;36281;34.132;-118.018;2023-04-05T11:07:14;100446.97;;;8.11;65.80
50368;BME280;36281;34.132;-118.018;2023-04-05T11:09:52;100443.56;;;8.02;66.28
50368;BME280;36281;34.132;-118.018;2023-04-05T11:15:32;100441.00;;;7.94;66.86
50368;BME280;36281;34.132;-118.018;2023-04-05T11:18:08;100443.84;;;7.93;67.06
50368;BME280;36281;34.132;-118.018;2023-04-05T11:20:47;100440.91;;;7.88;66.89
50368;BME280;36281;34.132;-118.018;2023-04-05T11:23:18;100442.09;;;7.85;66.88
50368;BME280;36281;34.132;-118.018;2023-04-05T11:25:50;100441.66;;;7.82;66.63
50368;BME280;36281;34.132;-118.018;2023-04-05T11:28:23;100449.28;;;7.76;67.32
50368;BME280;36281;34.132;-118.018;2023-04-05T11:30:55;100446.34;;;7.71;67.24
50368;BME280;36281;34.132;-118.018;2023-04-05T11:33:56;100447.50;;;7.69;67.66
50368;BME280;36281;34.132;-118.018;2023-04-05T11:36:36;100459.41;;;7.65;67.81
50368;BME280;36281;34.132;-118.018;2023-04-05T11:39:29;100457.97;;;7.62;67.85
50368;BME280;36281;34.132;-118.018;2023-04-05T11:42:02;100457.16;;;7.62;67.66
50368;BME280;36281;34.132;-118.018;2023-04-05T11:44:49;100455.97;;;7.64;66.95
50368;BME280;36281;34.132;-118.018;2023-04-05T11:47:22;100457.16;;;7.62;67.10
50368;BME280;36281;34.132;-118.018;2023-04-05T11:49:51;100456.69;;;7.58;66.49
50368;BME280;36281;34.132;-118.018;2023-04-05T11:52:21;100459.50;;;7.57;67.00
50368;BME280;36281;34.132;-118.018;2023-04-05T11:54:51;100462.66;;;7.52;66.88
50368;BME280;36281;34.132;-118.018;2023-04-05T11:57:21;100467.75;;;7.54;67.58
50368;BME280;36281;34.132;-118.018;2023-04-05T11:59:51;100462.53;;;7.45;67.64
50368;BME280;36281;34.132;-118.018;2023-04-05T12:02:22;100460.06;;;7.44;67.48
50368;BME280;36281;34.132;-118.018;2023-04-05T12:04:55;100465.34;;;7.44;67.05
50368;BME280;36281;34.132;-118.018;2023-04-05T12:07:28;100450.44;;;7.36;66.32
50368;BME280;36281;34.132;-118.018;2023-04-05T12:10:03;100460.25;;;7.42;66.47
50368;BME280;36281;34.132;-118.018;2023-04-05T12:12:34;100462.25;;;7.40;65.25
50368;BME280;36281;34.132;-118.018;2023-04-05T12:15:04;100466.88;;;7.38;64.74
50368;BME280;36281;34.132;-118.018;2023-04-05T12:17:45;100461.13;;;7.35;64.86
50368;BME280;36281;34.132;-118.018;2023-04-05T12:20:16;100470.03;;;7.34;65.46
50368;BME280;36281;34.132;-118.018;2023-04-05T12:22:48;100397.31;;;6.79;65.78
50368;BME280;36281;34.132;-118.018;2023-04-05T12:25:17;100469.63;;;7.22;66.81
50368;BME280;36281;34.132;-118.018;2023-04-05T12:27:47;100464.88;;;7.17;66.77
50368;BME280;36281;34.132;-118.018;2023-04-05T12:30:17;100470.78;;;7.19;66.53
50368;BME280;36281;34.132;-118.018;2023-04-05T12:32:50;100476.06;;;7.19;67.09
50368;BME280;36281;34.132;-118.018;2023-04-05T12:35:21;100469.97;;;7.19;66.83
50368;BME280;36281;34.132;-118.018;2023-04-05T12:37:51;100485.16;;;7.17;65.84
50368;BME280;36281;34.132;-118.018;2023-04-05T12:40:21;100483.03;;;7.12;66.07
50368;BME280;36281;34.132;-118.018;2023-04-05T12:42:51;100480.91;;;7.08;66.59
50368;BME280;36281;34.132;-118.018;2023-04-05T12:45:22;100480.72;;;7.09;67.36
50368;BME280;36281;34.132;-118.018;2023-04-05T12:47:57;100492.59;;;7.05;67.05
50368;BME280;36281;34.132;-118.018;2023-04-05T12:50:27;100497.41;;;7.02;67.33
50368;BME280;36281;34.132;-118.018;2023-04-05T12:52:57;100480.88;;;6.85;67.54
50368;BME280;36281;34.132;-118.018;2023-04-05T12:55:28;100493.63;;;6.96;67.48
50368;BME280;36281;34.132;-118.018;2023-04-05T12:57:59;100502.41;;;6.88;67.18